Accueil
METAR-TAF:

METAR-TAF

Aéroports :

Lahaina, Hawaï, États-Unis

latitude: 21-01N, longitude: 156-38W, altitude: 40 m

METAR: absent

Heure: 14:28 (00:28 UTC)

Prévision

Le bulletin a été fait il y a 50 minutes, à 23:38 UTC
Prévision valable du 23 à 00 UTC au 23 à 24 UTC
Vent 15 kt de nord-est avec des rafales jusqu'à 27 kt
Visibilité: 10 km
Nuages épars à une hauteur de 2500 ft
Nuages épars à une hauteur de 3500 ft
A partir de 23 à 0600 UTC
Vent 11 kt de nord-est avec des rafales jusqu'à 20 kt
Visibilité: 10 km
Nuages épars à une hauteur de 1500 ft
Nuages fragmentés à une hauteur de 3500 ft
A partir de 23 à 2000 UTC
Vent 15 kt de nord-est avec des rafales jusqu'à 25 kt
Visibilité: 10 km
Nuages épars à une hauteur de 2000 ft
Nuages épars à une hauteur de 3500 ft

TAF: PHJH 222338Z 2300/2324 05015G27KT P6SM SCT025 SCT035 FM230600 05011G20KT P6SM SCT015 BKN035 FM232000 05015G25KT P6SM SCT020 SCT035

Observations et prévisions météorologiques de plus de 4000 aéroports (messages METAR et TAF).

Les stations disponibles sont représentées par des disques jaunes et rouges sur la carte.

Passer la souris dessus pour voir le nom de la station.

Cliquer dessus pour voir les observations et prévisions météorologiques.

Pour changer de carte: cliquez sur les boutons verts avec une croix noire pour zoomer, sur le bouton vert avec un tiret pour effectuer un zoom arrière, ou sur les flèches vertes pour les cartes adjacentes.


METAR-TAF: